Time;durP1;ratioP1;P1;durP2;ratioP2;P2;SDS_P1;SDS_P2;PMS_P1;PMS_P2;Temp;Humidity;BMP_temperature;BMP_pressure;BME280_temperature;BME280_humidity;BME280_pressure;Samples;Min_cycle;Max_cycle;Signal;HPM_P1;HPM_P2
2023/03/08 00:00:42;;;;;;;7.60;2.25;;;2.50;99.90;;;;;;5090487;28;20125;-76
2023/03/08 00:03:14;;;;;;;3.17;1.98;;;2.50;99.90;;;;;;5090812;28;20114;-72
2023/03/08 00:05:40;;;;;;;6.28;2.30;;;2.60;99.90;;;;;;5090618;28;20419;-73
2023/03/08 00:08:06;;;;;;;3.38;2.00;;;2.60;99.90;;;;;;5090949;28;20031;-74
2023/03/08 00:10:32;;;;;;;2.95;1.85;;;2.70;99.90;;;;;;5090453;28;20119;-77
2023/03/08 00:12:58;;;;;;;3.45;1.90;;;2.70;99.90;;;;;;5090395;28;20036;-75
2023/03/08 00:15:24;;;;;;;3.70;2.33;;;2.70;99.90;;;;;;5091187;28;20031;-73
2023/03/08 00:17:50;;;;;;;2.90;1.52;;;2.70;99.90;;;;;;5090424;28;20339;-73
2023/03/08 00:20:16;;;;;;;4.93;2.13;;;2.80;99.90;;;;;;5089576;28;20096;-76
2023/03/08 00:22:42;;;;;;;2.83;1.85;;;2.80;99.90;;;;;;5090483;28;20119;-73
2023/03/08 00:25:10;;;;;;;3.13;1.80;;;2.80;99.90;;;;;;5089234;28;20224;-74
2023/03/08 00:27:36;;;;;;;4.20;1.80;;;2.80;99.90;;;;;;5090188;28;20028;-76
2023/03/08 00:30:04;;;;;;;2.58;2.05;;;2.90;99.90;;;;;;5090879;28;20080;-73
2023/03/08 00:32:31;;;;;;;5.05;1.67;;;2.90;99.90;;;;;;5090395;28;20176;-74
2023/03/08 00:34:56;;;;;;;2.28;1.45;;;2.90;99.90;;;;;;5090160;28;20031;-74
2023/03/08 00:37:22;;;;;;;1.67;1.52;;;2.90;99.90;;;;;;5090470;28;20020;-74
2023/03/08 00:39:51;;;;;;;4.82;1.70;;;3.00;99.90;;;;;;5090097;28;20028;-74
2023/03/08 00:42:17;;;;;;;3.95;1.80;;;3.00;99.90;;;;;;5090282;28;20028;-74
2023/03/08 00:44:43;;;;;;;4.50;1.50;;;3.00;99.90;;;;;;5090228;28;20058;-74
2023/03/08 00:47:10;;;;;;;3.15;1.50;;;3.00;99.90;;;;;;5090356;28;20039;-74
2023/03/08 00:49:36;;;;;;;2.83;1.40;;;3.10;99.90;;;;;;5090386;28;20431;-75
2023/03/08 00:52:02;;;;;;;2.55;1.20;;;3.10;99.90;;;;;;5090795;28;20034;-73
2023/03/08 00:54:29;;;;;;;1.13;0.98;;;3.20;99.90;;;;;;5090336;28;20032;-73
2023/03/08 00:56:55;;;;;;;3.55;1.30;;;3.20;99.90;;;;;;5089914;28;20113;-74
2023/03/08 00:59:20;;;;;;;2.25;1.25;;;3.20;99.90;;;;;;5089822;28;20056;-73
2023/03/08 01:01:46;;;;;;;2.60;1.08;;;3.30;99.90;;;;;;5089418;28;20036;-74
2023/03/08 01:04:12;;;;;;;1.92;1.13;;;3.20;99.90;;;;;;5090284;28;20059;-75
2023/03/08 01:06:38;;;;;;;2.17;1.08;;;3.30;99.90;;;;;;5089665;28;20043;-75
2023/03/08 01:09:05;;;;;;;4.20;1.08;;;3.30;99.90;;;;;;5089940;28;20047;-73
2023/03/08 01:11:34;;;;;;;3.25;1.20;;;3.40;99.90;;;;;;5089991;28;20067;-73
2023/03/08 01:13:59;;;;;;;3.05;0.93;;;3.40;99.90;;;;;;5090373;28;20119;-74
2023/03/08 01:16:28;;;;;;;3.40;1.02;;;3.40;99.90;;;;;;5091044;28;20438;-73
2023/03/08 01:18:55;;;;;;;0.93;0.93;;;3.40;99.90;;;;;;5090557;28;20047;-75
2023/03/08 01:21:21;;;;;;;2.88;1.20;;;3.40;99.90;;;;;;5090421;28;20478;-75
2023/03/08 01:23:47;;;;;;;2.10;0.70;;;3.40;99.90;;;;;;5090630;28;20035;-75
2023/03/08 01:26:19;;;;;;;3.33;0.85;;;3.40;99.90;;;;;;5091697;28;20039;-75
2023/03/08 01:28:45;;;;;;;1.40;0.50;;;3.40;99.90;;;;;;5073439;28;20401;-75
2023/03/08 01:31:17;;;;;;;3.25;0.70;;;3.40;99.90;;;;;;5092068;28;20036;-74
2023/03/08 01:33:44;;;;;;;1.42;0.73;;;3.50;99.90;;;;;;5091538;28;20320;-74
2023/03/08 01:36:12;;;;;;;1.35;0.57;;;3.40;99.90;;;;;;5092255;28;20028;-74
2023/03/08 01:38:38;;;;;;;0.68;0.52;;;3.40;99.90;;;;;;5091772;28;20028;-76
2023/03/08 01:41:05;;;;;;;3.25;0.70;;;3.50;99.90;;;;;;5091887;28;20077;-75
2023/03/08 01:43:36;;;;;;;1.65;0.63;;;3.60;99.90;;;;;;5092741;28;20048;-75
2023/03/08 01:46:05;;;;;;;0.77;0.47;;;3.60;99.90;;;;;;5090751;28;20043;-74
2023/03/08 01:48:35;;;;;;;0.75;0.60;;;3.50;99.90;;;;;;5090035;28;20024;-73
2023/03/08 01:51:03;;;;;;;1.65;0.60;;;3.60;99.90;;;;;;5089866;28;20108;-74
2023/03/08 01:53:31;;;;;;;2.33;0.80;;;3.50;99.90;;;;;;5090447;28;20032;-74
2023/03/08 01:55:57;;;;;;;1.02;0.57;;;3.60;99.90;;;;;;5088348;28;20472;-74
2023/03/08 01:58:23;;;;;;;3.33;0.70;;;3.50;99.90;;;;;;5090264;28;20020;-74
2023/03/08 02:00:49;;;;;;;3.13;0.65;;;3.50;99.90;;;;;;5089843;28;20069;-75
2023/03/08 02:03:15;;;;;;;0.93;0.50;;;3.50;99.90;;;;;;5090603;28;20024;-74
2023/03/08 02:05:42;;;;;;;3.95;0.75;;;3.50;99.90;;;;;;5089537;28;20099;-75
2023/03/08 02:08:08;;;;;;;1.02;0.63;;;3.50;99.90;;;;;;5090091;28;20032;-74
2023/03/08 02:10:35;;;;;;;2.28;0.60;;;3.50;99.90;;;;;;5089820;28;20043;-75
2023/03/08 02:13:04;;;;;;;0.98;0.52;;;3.50;99.90;;;;;;5092434;28;20043;-75
2023/03/08 02:15:29;;;;;;;1.02;0.57;;;3.50;99.90;;;;;;5094080;28;20072;-75
2023/03/08 02:17:55;;;;;;;5.70;0.77;;;3.50;99.90;;;;;;5092070;28;20093;-75
2023/03/08 02:20:34;;;;;;;1.60;0.60;;;3.60;99.90;;;;;;5093758;28;20028;-74
2023/03/08 02:23:17;;;;;;;1.08;0.50;;;3.60;99.90;;;;;;5093259;28;20067;-75
2023/03/08 02:25:52;;;;;;;2.25;0.38;;;3.60;99.90;;;;;;5093388;28;20052;-76
2023/03/08 02:28:20;;;;;;;4.18;0.70;;;3.60;99.90;;;;;;5093476;28;20536;-75
2023/03/08 02:30:46;;;;;;;1.30;0.35;;;3.60;99.90;;;;;;5093117;28;20035;-75
2023/03/08 02:33:12;;;;;;;0.73;0.40;;;3.70;99.90;;;;;;5093972;28;20509;-74
2023/03/08 02:35:41;;;;;;;2.80;0.43;;;3.70;99.90;;;;;;5093773;28;20042;-74
2023/03/08 02:38:08;;;;;;;2.00;0.50;;;3.70;99.90;;;;;;5093597;28;20020;-75
2023/03/08 02:40:35;;;;;;;2.92;0.73;;;3.70;99.90;;;;;;5093420;28;20058;-74
2023/03/08 02:43:01;;;;;;;1.52;0.40;;;3.70;99.90;;;;;;5093095;28;21077;-74
2023/03/08 02:45:27;;;;;;;1.25;0.55;;;3.70;99.90;;;;;;5093548;28;20154;-74
2023/03/08 02:47:52;;;;;;;1.85;0.50;;;3.70;99.90;;;;;;5092941;28;20435;-74
2023/03/08 02:50:18;;;;;;;1.48;0.50;;;3.70;99.90;;;;;;5093097;28;20039;-74
2023/03/08 02:52:44;;;;;;;4.03;0.55;;;3.70;99.90;;;;;;5093196;28;20326;-76
2023/03/08 02:55:10;;;;;;;1.10;0.70;;;3.70;99.90;;;;;;5094175;28;20024;-75
2023/03/08 02:57:36;;;;;;;2.60;0.55;;;3.60;99.90;;;;;;5094430;28;20020;-75
2023/03/08 03:00:02;;;;;;;0.70;0.47;;;3.60;99.90;;;;;;5092728;28;20094;-75
2023/03/08 03:02:28;;;;;;;5.88;0.70;;;3.70;99.90;;;;;;5093215;28;20081;-75
2023/03/08 03:04:54;;;;;;;0.95;0.40;;;3.70;99.90;;;;;;5092945;28;20028;-75
2023/03/08 03:07:19;;;;;;;5.60;0.70;;;3.70;99.90;;;;;;5093325;28;20131;-75
2023/03/08 03:09:45;;;;;;;6.13;0.73;;;3.70;99.90;;;;;;5092607;28;20483;-75
2023/03/08 03:12:11;;;;;;;5.53;0.93;;;3.70;99.90;;;;;;5091664;28;20028;-75
2023/03/08 03:14:36;;;;;;;0.52;0.38;;;3.70;99.90;;;;;;5092865;28;20379;-75
2023/03/08 03:17:02;;;;;;;2.65;0.60;;;3.70;99.90;;;;;;5090965;28;20036;-75
2023/03/08 03:19:28;;;;;;;2.03;0.70;;;3.70;99.90;;;;;;5092969;28;20028;-75
2023/03/08 03:21:54;;;;;;;3.22;0.70;;;3.70;99.90;;;;;;5092346;28;20133;-75
2023/03/08 03:24:19;;;;;;;3.65;0.63;;;3.70;99.90;;;;;;5090734;28;20043;-74
2023/03/08 03:26:50;;;;;;;2.92;0.70;;;3.80;99.90;;;;;;5091986;28;20051;-74
2023/03/08 03:29:15;;;;;;;2.20;0.60;;;3.80;99.90;;;;;;5092924;28;20481;-74
2023/03/08 03:31:41;;;;;;;1.23;0.57;;;3.80;99.90;;;;;;5092424;28;20032;-75
2023/03/08 03:34:08;;;;;;;0.93;0.38;;;3.80;99.90;;;;;;5093555;28;20115;-74
2023/03/08 03:36:33;;;;;;;0.68;0.63;;;3.80;99.90;;;;;;5093429;28;20195;-75
2023/03/08 03:38:59;;;;;;;2.17;0.45;;;3.90;99.90;;;;;;5092185;28;20494;-74
2023/03/08 03:41:25;;;;;;;0.63;0.40;;;3.90;99.90;;;;;;5092935;28;20077;-75
2023/03/08 03:43:51;;;;;;;2.47;0.60;;;3.90;99.90;;;;;;5092190;28;20028;-75
2023/03/08 03:46:19;;;;;;;1.33;0.47;;;3.90;99.90;;;;;;5092945;28;20032;-74
2023/03/08 03:48:45;;;;;;;1.85;0.57;;;3.90;99.90;;;;;;5092140;28;20024;-77
2023/03/08 03:51:14;;;;;;;2.55;0.50;;;3.90;99.90;;;;;;5092217;28;20393;-75
2023/03/08 03:53:40;;;;;;;0.82;0.30;;;3.90;99.90;;;;;;5092547;28;20024;-75
2023/03/08 03:56:17;;;;;;;4.30;0.98;;;4.00;99.90;;;;;;5091962;28;20024;-74
2023/03/08 03:58:43;;;;;;;1.85;0.28;;;4.00;99.90;;;;;;5092549;28;20016;-74
2023/03/08 04:01:15;;;;;;;0.95;0.45;;;3.90;99.90;;;;;;5091611;28;20024;-75
2023/03/08 04:03:41;;;;;;;1.63;0.43;;;4.00;99.90;;;;;;5092119;28;20058;-74
2023/03/08 04:06:16;;;;;;;3.70;0.90;;;4.00;99.90;;;;;;5091147;28;20393;-75
2023/03/08 04:08:42;;;;;;;1.35;0.38;;;3.90;99.90;;;;;;5091718;28;20355;-74
2023/03/08 04:11:09;;;;;;;2.63;0.40;;;4.00;99.90;;;;;;5091176;28;20047;-75
2023/03/08 04:13:35;;;;;;;3.63;0.22;;;3.90;99.90;;;;;;5090948;28;20024;-75
2023/03/08 04:16:18;;;;;;;1.75;0.30;;;3.90;99.90;;;;;;5091208;28;20031;-75
2023/03/08 04:18:45;;;;;;;1.23;0.45;;;4.00;99.90;;;;;;5091400;28;20036;-75
2023/03/08 04:21:11;;;;;;;3.80;1.05;;;3.90;99.90;;;;;;5091482;28;20028;-75
2023/03/08 04:23:37;;;;;;;1.27;0.50;;;4.00;99.90;;;;;;5091162;28;20020;-75
2023/03/08 04:26:04;;;;;;;4.70;0.60;;;3.90;99.90;;;;;;5090828;28;20077;-75
2023/03/08 04:28:32;;;;;;;1.10;0.30;;;3.90;99.90;;;;;;5091202;28;20123;-75
2023/03/08 04:30:59;;;;;;;0.75;0.50;;;3.90;99.90;;;;;;5090634;28;20062;-75
2023/03/08 04:33:25;;;;;;;2.50;0.50;;;3.90;99.90;;;;;;5091064;28;20111;-75
2023/03/08 04:35:51;;;;;;;1.15;0.40;;;3.90;99.90;;;;;;5089263;28;20099;-75
2023/03/08 04:38:17;;;;;;;2.72;0.50;;;3.90;99.90;;;;;;5091123;28;20032;-75
2023/03/08 04:41:03;;;;;;;1.38;0.20;;;3.90;99.90;;;;;;5090457;28;20028;-75
2023/03/08 04:43:29;;;;;;;0.77;0.63;;;3.90;99.90;;;;;;5091405;28;20533;-75
2023/03/08 04:45:55;;;;;;;0.73;0.35;;;3.90;99.90;;;;;;5090222;28;20103;-75
2023/03/08 04:48:20;;;;;;;1.10;0.40;;;3.90;99.90;;;;;;5089761;28;20439;-75
2023/03/08 04:51:00;;;;;;;0.77;0.50;;;3.90;99.90;;;;;;5090999;28;20077;-75
2023/03/08 04:53:26;;;;;;;1.58;0.50;;;3.80;99.90;;;;;;5090673;28;20423;-75
2023/03/08 04:55:52;;;;;;;2.05;0.50;;;3.90;99.90;;;;;;5090101;28;20587;-76
2023/03/08 04:58:18;;;;;;;0.40;0.40;;;3.90;99.90;;;;;;5090711;28;20131;-75
2023/03/08 05:00:44;;;;;;;2.45;0.80;;;3.80;99.90;;;;;;5090588;28;20028;-75
2023/03/08 05:03:12;;;;;;;1.85;0.50;;;3.80;99.90;;;;;;5090049;28;20093;-75
2023/03/08 05:05:44;;;;;;;3.13;0.55;;;3.80;99.90;;;;;;5090643;28;20145;-75
2023/03/08 05:08:09;;;;;;;0.63;0.30;;;3.80;99.90;;;;;;5090472;28;20055;-75
2023/03/08 05:10:35;;;;;;;0.98;0.43;;;3.80;99.90;;;;;;5090734;28;20118;-75
2023/03/08 05:13:01;;;;;;;2.42;0.40;;;3.80;99.90;;;;;;5090134;28;20031;-76
2023/03/08 05:15:26;;;;;;;4.35;0.60;;;3.80;99.90;;;;;;5091089;28;20051;-75
2023/03/08 05:17:52;;;;;;;0.70;0.28;;;3.80;99.90;;;;;;5090183;28;20103;-77
2023/03/08 05:20:18;;;;;;;2.50;0.50;;;3.70;99.90;;;;;;5090537;28;20394;-75
2023/03/08 05:22:43;;;;;;;0.63;0.28;;;3.80;99.90;;;;;;5090635;28;20415;-75
2023/03/08 05:25:09;;;;;;;1.85;0.50;;;3.80;99.90;;;;;;5090023;28;20055;-75
2023/03/08 05:27:35;;;;;;;1.80;0.40;;;3.80;99.90;;;;;;5090631;28;20024;-75
2023/03/08 05:30:05;;;;;;;1.30;0.40;;;3.70;99.90;;;;;;5090260;28;20462;-75
2023/03/08 05:32:31;;;;;;;3.22;0.40;;;3.70;99.90;;;;;;5090534;28;20040;-75
2023/03/08 05:34:57;;;;;;;1.38;0.45;;;3.70;99.90;;;;;;5089863;28;20416;-75
2023/03/08 05:37:25;;;;;;;1.98;0.52;;;3.70;99.90;;;;;;5090914;28;20027;-75
2023/03/08 05:39:52;;;;;;;1.83;0.30;;;3.70;99.90;;;;;;5090399;28;20058;-78
2023/03/08 05:42:18;;;;;;;2.00;0.40;;;3.70;99.90;;;;;;5090550;28;20024;-75
2023/03/08 05:44:45;;;;;;;0.47;0.32;;;3.70;99.90;;;;;;5090706;28;20222;-75
2023/03/08 05:47:10;;;;;;;0.90;0.47;;;3.70;99.90;;;;;;5093409;28;20109;-74
2023/03/08 05:49:36;;;;;;;1.58;0.52;;;3.70;99.90;;;;;;5095758;28;20458;-74
2023/03/08 05:52:02;;;;;;;0.85;0.38;;;3.80;99.90;;;;;;5095087;28;20036;-74
2023/03/08 05:54:28;;;;;;;3.65;0.63;;;3.80;99.90;;;;;;5095372;28;20043;-75
2023/03/08 05:56:54;;;;;;;0.40;0.30;;;3.80;99.90;;;;;;5094967;28;20490;-77
2023/03/08 05:59:19;;;;;;;2.30;0.40;;;3.80;99.90;;;;;;5093623;28;20028;-75
2023/03/08 06:01:45;;;;;;;0.60;0.40;;;3.80;99.90;;;;;;5094835;28;20035;-74
2023/03/08 06:04:11;;;;;;;1.25;0.52;;;3.80;99.90;;;;;;5093346;28;20042;-75
2023/03/08 06:06:36;;;;;;;1.23;0.40;;;3.80;99.90;;;;;;5093834;28;20028;-75
2023/03/08 06:09:03;;;;;;;1.40;0.50;;;3.90;99.90;;;;;;5093288;28;20031;-74
2023/03/08 06:11:28;;;;;;;1.08;0.40;;;3.90;99.90;;;;;;5093821;28;20081;-74
2023/03/08 06:13:54;;;;;;;3.53;0.60;;;3.80;99.90;;;;;;5093735;28;20024;-77
2023/03/08 06:16:20;;;;;;;2.03;0.50;;;3.80;99.90;;;;;;5093875;28;20028;-74
2023/03/08 06:18:46;;;;;;;0.45;0.40;;;3.80;99.90;;;;;;5093893;28;20079;-74
2023/03/08 06:21:16;;;;;;;1.33;0.43;;;3.80;99.90;;;;;;5093354;28;20060;-75
2023/03/08 06:23:42;;;;;;;1.02;0.30;;;3.80;99.90;;;;;;5093609;28;20046;-74
2023/03/08 06:26:09;;;;;;;2.47;0.60;;;3.80;99.90;;;;;;5093197;28;20408;-74
2023/03/08 06:28:35;;;;;;;2.10;0.57;;;3.80;99.90;;;;;;5093778;28;20024;-74
2023/03/08 06:31:01;;;;;;;2.63;0.73;;;3.80;99.90;;;;;;5092699;28;20344;-74
2023/03/08 06:33:29;;;;;;;3.75;0.35;;;3.90;99.90;;;;;;5091919;28;20123;-74
2023/03/08 06:36:06;;;;;;;1.80;0.70;;;3.90;99.90;;;;;;5093375;28;20137;-77
2023/03/08 06:38:35;;;;;;;3.13;0.80;;;3.90;99.90;;;;;;5093686;28;20151;-74
2023/03/08 06:41:01;;;;;;;1.85;0.60;;;3.90;99.90;;;;;;5093024;28;20471;-75
2023/03/08 06:43:27;;;;;;;2.22;0.68;;;3.90;99.90;;;;;;5092966;28;20104;-75
2023/03/08 06:45:53;;;;;;;5.05;0.90;;;3.90;99.90;;;;;;5093191;28;20024;-74
2023/03/08 06:48:19;;;;;;;1.42;0.65;;;3.90;99.90;;;;;;5093087;28;20089;-74
2023/03/08 06:50:45;;;;;;;3.88;1.00;;;3.90;99.90;;;;;;5093115;28;20068;-74
2023/03/08 06:53:11;;;;;;;3.63;0.60;;;3.90;99.90;;;;;;5092935;28;20140;-74
2023/03/08 06:55:38;;;;;;;2.72;0.60;;;3.90;99.90;;;;;;5093346;28;20035;-74
2023/03/08 06:58:05;;;;;;;2.00;0.52;;;3.80;99.90;;;;;;5091659;28;20024;-75
2023/03/08 07:00:31;;;;;;;3.75;0.70;;;3.80;99.90;;;;;;5093077;28;20051;-75
2023/03/08 07:02:58;;;;;;;3.75;0.60;;;3.80;99.90;;;;;;5092903;28;20054;-78
2023/03/08 07:05:24;;;;;;;3.78;0.75;;;3.80;99.90;;;;;;5092664;28;20528;-75
2023/03/08 07:07:50;;;;;;;1.85;0.55;;;3.80;99.90;;;;;;5093255;28;20069;-75
2023/03/08 07:10:18;;;;;;;4.90;1.00;;;3.80;99.90;;;;;;5092437;28;20379;-75
2023/03/08 07:12:47;;;;;;;2.60;0.60;;;3.80;99.90;;;;;;5093156;28;20040;-74
2023/03/08 07:15:14;;;;;;;3.67;0.70;;;3.80;99.90;;;;;;5092048;28;20596;-74
2023/03/08 07:17:43;;;;;;;2.63;0.77;;;3.90;99.90;;;;;;5093060;28;20024;-74
2023/03/08 07:20:12;;;;;;;2.65;0.90;;;3.90;99.90;;;;;;5092655;28;20459;-75
2023/03/08 07:22:38;;;;;;;5.78;0.90;;;3.90;99.90;;;;;;5092904;28;20039;-74
2023/03/08 07:25:04;;;;;;;2.05;0.70;;;3.90;99.90;;;;;;5092185;28;20048;-74
2023/03/08 07:27:30;;;;;;;4.40;1.10;;;3.90;99.90;;;;;;5092397;28;20530;-74
2023/03/08 07:29:55;;;;;;;1.38;0.60;;;4.00;99.90;;;;;;5092775;28;20091;-74
2023/03/08 07:32:22;;;;;;;4.32;0.80;;;4.00;99.90;;;;;;5091884;28;20039;-74
2023/03/08 07:34:48;;;;;;;1.63;0.80;;;3.90;99.90;;;;;;5091159;28;20028;-75
2023/03/08 07:37:15;;;;;;;7.78;2.13;;;3.90;99.90;;;;;;5092215;28;20024;-75
2023/03/08 07:39:41;;;;;;;5.43;1.17;;;3.90;99.90;;;;;;5092365;28;20093;-74
2023/03/08 07:42:08;;;;;;;3.00;0.90;;;3.90;99.90;;;;;;5091719;28;20028;-74
2023/03/08 07:44:35;;;;;;;2.70;0.70;;;3.90;99.90;;;;;;5091985;28;20184;-75
2023/03/08 07:47:02;;;;;;;4.10;0.93;;;3.90;99.90;;;;;;5090551;28;20111;-79
2023/03/08 07:49:28;;;;;;;5.53;0.93;;;3.80;99.90;;;;;;5092088;28;20035;-74
2023/03/08 07:51:54;;;;;;;3.58;0.75;;;3.90;99.90;;;;;;5090873;28;20032;-74
2023/03/08 07:54:20;;;;;;;5.60;1.00;;;3.90;99.90;;;;;;5091510;28;20036;-74
2023/03/08 07:56:46;;;;;;;7.38;1.00;;;3.80;99.90;;;;;;5092106;28;20107;-74
2023/03/08 07:59:11;;;;;;;6.03;1.40;;;3.80;99.90;;;;;;5073378;28;20378;-75
2023/03/08 08:01:37;;;;;;;4.57;0.93;;;3.90;99.90;;;;;;5092019;28;20028;-75
2023/03/08 08:04:03;;;;;;;1.50;0.68;;;3.90;99.90;;;;;;5090114;28;20027;-77
2023/03/08 08:06:29;;;;;;;5.88;1.02;;;3.90;99.90;;;;;;5091829;28;20490;-75
2023/03/08 08:08:55;;;;;;;3.20;0.95;;;4.00;99.90;;;;;;5091392;28;20110;-74
2023/03/08 08:11:22;;;;;;;4.05;0.98;;;4.00;99.90;;;;;;5090766;28;20047;-74
2023/03/08 08:13:48;;;;;;;2.42;0.73;;;4.10;99.90;;;;;;5091630;28;20197;-74
2023/03/08 08:16:15;;;;;;;5.03;1.00;;;4.10;99.90;;;;;;5089467;28;20108;-74
2023/03/08 08:18:41;;;;;;;4.07;1.17;;;4.10;99.90;;;;;;5091525;28;20052;-74
2023/03/08 08:21:13;;;;;;;6.18;1.42;;;4.20;99.90;;;;;;5089164;28;20066;-74
2023/03/08 08:23:40;;;;;;;8.05;1.48;;;4.20;99.90;;;;;;5091030;28;20562;-74
2023/03/08 08:26:07;;;;;;;5.70;1.23;;;4.30;99.90;;;;;;5090872;28;20027;-75
2023/03/08 08:28:34;;;;;;;2.15;0.63;;;4.30;99.90;;;;;;5091033;28;20132;-74
2023/03/08 08:31:08;;;;;;;4.57;0.80;;;4.30;99.90;;;;;;5090878;28;20043;-74
2023/03/08 08:33:35;;;;;;;3.58;0.80;;;4.40;99.90;;;;;;5091455;28;20020;-75
2023/03/08 08:36:03;;;;;;;5.15;1.00;;;4.40;99.90;;;;;;5091323;28;20031;-75
2023/03/08 08:38:29;;;;;;;4.40;0.85;;;4.50;99.90;;;;;;5091282;28;20093;-75
2023/03/08 08:40:59;;;;;;;4.13;0.82;;;4.50;99.90;;;;;;5091151;28;20133;-76
2023/03/08 08:43:25;;;;;;;3.92;0.50;;;4.50;99.90;;;;;;5090238;28;20035;-74
2023/03/08 08:45:54;;;;;;;3.53;0.60;;;4.60;99.90;;;;;;5090564;28;20020;-74
2023/03/08 08:48:19;;;;;;;1.75;0.60;;;4.50;99.90;;;;;;5090308;28;20032;-76
2023/03/08 08:50:45;;;;;;;1.98;0.90;;;4.60;99.90;;;;;;5091168;28;20016;-76
2023/03/08 08:53:11;;;;;;;2.42;0.80;;;4.60;99.90;;;;;;5090346;28;20028;-74
2023/03/08 08:55:37;;;;;;;1.95;0.70;;;4.60;99.90;;;;;;5090879;28;20028;-74
2023/03/08 08:58:04;;;;;;;4.10;0.60;;;4.60;99.90;;;;;;5091141;28;20374;-74
2023/03/08 09:00:31;;;;;;;5.38;0.80;;;4.70;99.90;;;;;;5089080;28;20043;-74
2023/03/08 09:02:56;;;;;;;2.47;0.73;;;4.70;99.90;;;;;;5090523;28;20024;-74
2023/03/08 09:05:22;;;;;;;3.83;0.60;;;4.70;99.90;;;;;;5090283;28;20025;-73
2023/03/08 09:07:48;;;;;;;2.63;0.85;;;4.80;99.90;;;;;;5090621;28;20389;-74
2023/03/08 09:10:14;;;;;;;3.13;0.60;;;4.80;99.90;;;;;;5090010;28;20024;-74
2023/03/08 09:12:41;;;;;;;6.03;0.60;;;4.80;99.90;;;;;;5090674;28;20135;-74
2023/03/08 09:15:09;;;;;;;1.50;0.43;;;4.80;99.90;;;;;;5090324;28;20043;-78
2023/03/08 09:17:36;;;;;;;3.22;0.70;;;4.70;99.90;;;;;;5090194;28;20119;-74
2023/03/08 09:20:04;;;;;;;5.07;1.00;;;4.70;99.90;;;;;;5090281;28;20424;-74
2023/03/08 09:22:29;;;;;;;1.15;0.22;;;4.80;99.90;;;;;;5089497;28;20107;-74
2023/03/08 09:24:55;;;;;;;6.93;0.90;;;4.80;99.90;;;;;;5090114;28;20147;-73
2023/03/08 09:27:21;;;;;;;2.33;0.70;;;4.80;99.90;;;;;;5090012;28;20366;-73
2023/03/08 09:29:48;;;;;;;1.48;0.55;;;4.80;99.90;;;;;;5090351;28;20031;-71
2023/03/08 09:32:14;;;;;;;5.00;0.60;;;4.90;99.90;;;;;;5089913;28;20462;-74
2023/03/08 09:34:39;;;;;;;6.13;0.98;;;5.00;99.90;;;;;;5088984;28;20024;-74
2023/03/08 09:37:07;;;;;;;1.02;0.43;;;5.10;99.90;;;;;;5090376;28;20039;-74
2023/03/08 09:39:33;;;;;;;2.35;0.57;;;5.10;99.90;;;;;;5089910;28;20064;-74
2023/03/08 09:42:02;;;;;;;1.52;0.85;;;5.10;99.90;;;;;;5090230;28;20063;-74
2023/03/08 09:44:44;;;;;;;7.80;0.50;;;5.10;99.90;;;;;;5089650;28;20137;-74
2023/03/08 09:47:28;;;;;;;5.55;0.73;;;5.10;99.90;;;;;;5090278;28;20374;-77
2023/03/08 09:50:02;;;;;;;0.82;0.63;;;5.10;99.90;;;;;;5090389;28;20024;-74
2023/03/08 09:52:37;;;;;;;5.32;0.80;;;5.10;99.90;;;;;;5089826;28;20032;-74
2023/03/08 09:55:08;;;;;;;4.55;0.77;;;5.10;99.90;;;;;;5090355;28;20047;-74
2023/03/08 09:57:39;;;;;;;2.40;0.70;;;5.00;99.90;;;;;;5088430;28;20025;-74
2023/03/08 10:00:08;;;;;;;2.78;0.90;;;5.00;99.90;;;;;;5090147;28;20016;-73
2023/03/08 10:02:41;;;;;;;2.03;0.63;;;5.10;99.90;;;;;;5089526;28;20035;-74
2023/03/08 10:05:25;;;;;;;1.55;0.52;;;5.10;99.90;;;;;;5090174;28;20118;-74
2023/03/08 10:08:02;;;;;;;3.70;0.80;;;5.20;99.90;;;;;;5090544;28;20118;-74
2023/03/08 10:10:52;;;;;;;2.45;0.80;;;5.10;99.90;;;;;;5089789;28;20216;-74
2023/03/08 10:13:51;;;;;;;1.98;0.40;;;5.20;99.90;;;;;;5090071;28;20036;-75
2023/03/08 10:16:27;;;;;;;5.35;0.80;;;5.20;99.90;;;;;;5089714;28;20044;-73
2023/03/08 10:19:06;;;;;;;5.35;1.17;;;5.20;99.90;;;;;;5090005;28;20032;-73
2023/03/08 10:21:35;;;;;;;5.65;1.30;;;5.20;99.90;;;;;;5089896;28;20106;-75
2023/03/08 10:24:10;;;;;;;5.07;1.08;;;5.20;99.90;;;;;;5089697;28;20052;-74
2023/03/08 10:26:35;;;;;;;1.42;0.90;;;5.20;99.90;;;;;;5089709;28;20036;-75
2023/03/08 10:29:01;;;;;;;3.88;1.88;;;5.10;99.90;;;;;;5090011;28;20073;-74
2023/03/08 10:31:29;;;;;;;2.05;1.05;;;5.10;99.90;;;;;;5089136;28;20478;-75
2023/03/08 10:34:20;;;;;;;2.65;0.90;;;5.10;99.90;;;;;;5092672;28;20027;-74
2023/03/08 10:36:51;;;;;;;2.78;1.20;;;5.10;99.90;;;;;;5090694;28;20043;-74
2023/03/08 10:39:17;;;;;;;5.57;1.88;;;5.10;99.90;;;;;;5092874;28;20028;-74
2023/03/08 10:41:53;;;;;;;4.85;2.40;;;5.10;99.90;;;;;;5093856;28;20052;-74
2023/03/08 10:44:39;;;;;;;7.70;2.30;;;5.20;99.90;;;;;;5093183;28;20035;-74
2023/03/08 10:47:20;;;;;;;5.57;3.10;;;5.20;99.90;;;;;;5093638;28;20111;-73
2023/03/08 10:49:46;;;;;;;9.93;3.70;;;5.20;99.90;;;;;;5093603;28;20476;-74
2023/03/08 10:52:42;;;;;;;5.93;3.88;;;5.20;99.90;;;;;;5093771;28;20061;-77
2023/03/08 10:55:09;;;;;;;6.18;4.00;;;5.20;99.90;;;;;;5088786;28;20389;-74
2023/03/08 10:57:35;;;;;;;9.07;4.30;;;5.30;99.90;;;;;;5093099;28;20020;-73
2023/03/08 11:00:23;;;;;;;5.35;3.03;;;5.40;99.90;;;;;;5093729;28;20028;-74
2023/03/08 11:02:49;;;;;;;6.45;4.22;;;5.30;99.90;;;;;;5092306;28;20036;-74
2023/03/08 11:05:19;;;;;;;5.55;4.05;;;5.30;99.90;;;;;;5093613;28;20118;-77
2023/03/08 11:07:54;;;;;;;12.13;4.47;;;5.40;99.90;;;;;;5095109;28;20036;-74
2023/03/08 11:10:23;;;;;;;6.30;4.85;;;5.40;99.90;;;;;;5096167;28;20051;-75
2023/03/08 11:13:04;;;;;;;7.72;4.40;;;5.40;99.90;;;;;;5096140;28;20040;-74
2023/03/08 11:15:33;;;;;;;9.30;5.68;;;5.40;99.90;;;;;;5094264;28;20024;-74
2023/03/08 11:18:40;;;;;;;9.90;5.38;;;5.40;99.90;;;;;;5095098;28;20035;-73
2023/03/08 11:21:46;;;;;;;12.68;6.35;;;5.50;99.90;;;;;;5096152;28;20046;-74
2023/03/08 11:24:27;;;;;;;8.70;4.95;;;5.50;99.90;;;;;;5090896;28;20135;-74
2023/03/08 11:26:58;;;;;;;12.50;6.15;;;5.50;99.90;;;;;;5093165;28;20020;-74
2023/03/08 11:29:58;;;;;;;8.32;5.93;;;5.40;99.90;;;;;;5091783;28;20070;-73
2023/03/08 11:32:29;;;;;;;14.20;5.07;;;5.50;99.90;;;;;;5092030;28;20071;-75
2023/03/08 11:35:03;;;;;;;9.45;5.55;;;5.50;99.90;;;;;;5093450;28;20466;-75
2023/03/08 11:37:43;;;;;;;8.07;4.78;;;5.50;99.90;;;;;;5091958;28;20466;-74
2023/03/08 11:40:25;;;;;;;9.18;4.75;;;5.50;99.90;;;;;;5093100;28;20093;-75
2023/03/08 11:43:00;;;;;;;5.70;4.30;;;5.50;99.90;;;;;;5093047;28;20047;-74
2023/03/08 11:46:07;;;;;;;8.48;4.70;;;5.50;99.90;;;;;;5092168;28;20043;-73
2023/03/08 11:48:42;;;;;;;4.60;3.17;;;5.60;99.90;;;;;;5091048;28;20588;-73
2023/03/08 11:51:53;;;;;;;7.22;3.28;;;5.50;99.90;;;;;;5092763;28;20107;-74
2023/03/08 11:54:34;;;;;;;10.20;4.50;;;5.60;99.90;;;;;;5087800;28;20036;-74
2023/03/08 11:57:03;;;;;;;10.40;4.63;;;5.80;99.90;;;;;;5092321;28;20415;-74
2023/03/08 11:59:34;;;;;;;7.15;4.40;;;5.90;99.90;;;;;;5091934;28;20097;-74
2023/03/08 12:02:06;;;;;;;7.38;4.25;;;5.80;99.90;;;;;;5091146;28;20036;-74
2023/03/08 12:04:57;;;;;;;6.70;5.55;;;5.70;99.90;;;;;;5091809;28;20094;-74
2023/03/08 12:07:34;;;;;;;9.07;4.00;;;5.80;99.90;;;;;;5091947;28;20028;-77
2023/03/08 12:10:20;;;;;;;5.03;3.45;;;5.80;99.90;;;;;;5092478;28;20031;-74
2023/03/08 12:12:55;;;;;;;3.55;2.97;;;5.80;99.90;;;;;;5092083;28;20047;-74
2023/03/08 12:15:47;;;;;;;8.85;4.53;;;5.70;99.90;;;;;;5091462;28;20020;-74
2023/03/08 12:18:19;;;;;;;7.30;4.43;;;5.80;99.90;;;;;;5092649;28;20025;-73
2023/03/08 12:20:46;;;;;;;11.20;5.22;;;5.90;99.90;;;;;;5092582;28;20028;-73
2023/03/08 12:23:18;;;;;;;9.75;4.38;;;6.00;99.90;;;;;;5092657;28;20102;-74
2023/03/08 12:25:49;;;;;;;9.70;4.93;;;5.90;99.90;;;;;;5092126;28;20044;-75
2023/03/08 12:28:40;;;;;;;4.40;2.55;;;5.90;99.90;;;;;;5092647;28;20107;-74
2023/03/08 12:31:25;;;;;;;7.20;4.35;;;5.80;99.90;;;;;;5092402;28;20105;-74
2023/03/08 12:33:52;;;;;;;9.27;5.10;;;5.90;99.90;;;;;;5092168;28;20335;-74
2023/03/08 12:36:21;;;;;;;8.25;4.70;;;5.90;99.90;;;;;;5091609;28;20031;-77
2023/03/08 12:38:54;;;;;;;8.25;5.50;;;6.00;99.90;;;;;;5092359;28;20462;-74
2023/03/08 12:41:22;;;;;;;9.35;5.82;;;6.10;99.90;;;;;;5090371;28;20173;-78
2023/03/08 12:43:58;;;;;;;8.48;4.60;;;6.10;99.90;;;;;;5092303;28;20036;-74
2023/03/08 12:46:24;;;;;;;7.55;5.05;;;6.00;99.90;;;;;;5091339;28;20049;-75
2023/03/08 12:48:51;;;;;;;6.45;5.00;;;5.90;99.90;;;;;;5092057;28;20098;-75
2023/03/08 12:51:26;;;;;;;10.80;5.50;;;5.90;99.90;;;;;;5091486;28;20082;-74
2023/03/08 12:54:01;;;;;;;8.55;5.10;;;6.00;99.90;;;;;;5092217;28;20023;-72
2023/03/08 12:56:30;;;;;;;7.25;4.43;;;6.10;99.90;;;;;;5090658;28;20016;-74
2023/03/08 12:59:20;;;;;;;6.38;4.50;;;6.20;99.90;;;;;;5090853;28;20104;-74
2023/03/08 13:01:58;;;;;;;5.05;3.35;;;6.20;99.90;;;;;;5091539;28;20086;-76
2023/03/08 13:04:39;;;;;;;6.25;3.67;;;6.30;99.90;;;;;;5089827;28;20023;-74
2023/03/08 13:07:06;;;;;;;3.42;2.30;;;6.20;99.90;;;;;;5091436;28;20024;-75
2023/03/08 13:09:40;;;;;;;5.80;3.25;;;6.00;99.90;;;;;;5089933;28;20378;-74